createdAt,value
2023-02-27T00:01:10.956Z,22.00
2023-02-27T00:04:13.414Z,22.60
2023-02-27T00:07:15.494Z,22.60
2023-02-27T00:10:18.413Z,22.90
2023-02-27T00:13:20.485Z,23.40
2023-02-27T00:16:22.823Z,23.00
2023-02-27T00:19:24.877Z,23.70
2023-02-27T00:22:27.862Z,24.40
2023-02-27T00:25:29.820Z,24.80
2023-02-27T00:28:32.104Z,25.00
2023-02-27T00:31:34.788Z,24.70
2023-02-27T00:34:37.105Z,25.00
2023-02-27T00:37:40.315Z,25.40
2023-02-27T00:40:42.624Z,25.60
2023-02-27T00:43:44.597Z,26.00
2023-02-27T00:46:46.862Z,26.20
2023-02-27T00:49:48.966Z,26.30
2023-02-27T00:52:51.215Z,26.60
2023-02-27T00:55:53.207Z,26.80
2023-02-27T00:58:55.478Z,26.70
2023-02-27T01:01:57.465Z,26.60
2023-02-27T01:04:59.724Z,26.50
2023-02-27T01:08:01.916Z,26.60
2023-02-27T01:11:04.265Z,26.60
2023-02-27T01:14:06.627Z,26.70
2023-02-27T01:17:08.833Z,26.80
2023-02-27T01:20:13.109Z,26.90
2023-02-27T01:23:15.333Z,26.80
2023-02-27T01:26:17.301Z,26.80
2023-02-27T01:29:19.583Z,26.70
2023-02-27T01:32:21.754Z,26.80
2023-02-27T01:35:24.091Z,26.70
2023-02-27T01:38:26.749Z,26.70
2023-02-27T01:41:29.790Z,26.60
2023-02-27T01:44:52.011Z,26.60
2023-02-27T01:48:12.817Z,26.40
2023-02-27T01:51:20.007Z,26.40
2023-02-27T01:54:25.791Z,26.40
2023-02-27T01:57:27.918Z,26.40
2023-02-27T02:00:30.199Z,26.50
2023-02-27T02:03:52.375Z,26.60
2023-02-27T02:07:00.963Z,26.60
2023-02-27T02:10:03.454Z,26.60
2023-02-27T02:13:05.684Z,26.60
2023-02-27T02:16:23.132Z,26.60
2023-02-27T02:19:49.694Z,26.60
2023-02-27T02:23:00.762Z,26.50
2023-02-27T02:26:48.274Z,26.60
2023-02-27T02:30:28.370Z,26.40
2023-02-27T02:33:52.654Z,26.20
2023-02-27T02:37:26.335Z,26.00
2023-02-27T02:40:39.556Z,26.20
2023-02-27T02:44:09.956Z,26.50
2023-02-27T02:47:18.015Z,26.20
2023-02-27T02:50:36.267Z,26.60
2023-02-27T02:54:01.666Z,26.70
2023-02-27T02:57:14.140Z,26.80
2023-02-27T03:00:20.273Z,26.60
2023-02-27T03:03:27.913Z,26.60
2023-02-27T03:06:34.749Z,26.50
2023-02-27T03:09:49.274Z,26.30
2023-02-27T03:12:59.735Z,26.30
2023-02-27T03:16:04.759Z,26.30
2023-02-27T03:19:31.208Z,26.30
2023-02-27T03:22:37.791Z,26.30
2023-02-27T03:25:41.036Z,26.30
2023-02-27T03:28:59.257Z,26.40
2023-02-27T03:32:07.458Z,26.30
2023-02-27T03:35:11.947Z,25.80
2023-02-27T03:38:24.203Z,26.40
2023-02-27T03:41:34.783Z,26.20
2023-02-27T03:44:40.254Z,26.40
2023-02-27T03:47:42.394Z,26.00
2023-02-27T03:50:44.735Z,26.60
2023-02-27T03:54:09.725Z,26.50
2023-02-27T03:57:15.361Z,26.30
2023-02-27T04:00:20.981Z,26.30
2023-02-27T04:03:23.436Z,26.60
2023-02-27T04:06:44.225Z,26.90
2023-02-27T04:10:28.208Z,27.00
2023-02-27T04:13:51.922Z,27.20
2023-02-27T04:17:00.446Z,27.30
2023-02-27T04:20:41.041Z,27.30
2023-02-27T04:23:46.350Z,27.50
2023-02-27T04:27:12.815Z,27.70
2023-02-27T04:30:34.842Z,27.80
2023-02-27T04:34:18.021Z,27.70
2023-02-27T04:37:30.994Z,27.40
2023-02-27T04:40:55.786Z,27.30
2023-02-27T04:43:59.170Z,27.20
2023-02-27T04:47:03.425Z,26.60
2023-02-27T04:50:12.788Z,26.90
2023-02-27T04:53:39.671Z,27.10
2023-02-27T04:56:46.683Z,27.20
2023-02-27T04:59:55.116Z,27.30
2023-02-27T05:03:12.234Z,27.40
2023-02-27T05:06:17.447Z,27.50
2023-02-27T05:09:35.314Z,27.50
2023-02-27T05:12:58.778Z,27.40
2023-02-27T05:16:33.147Z,27.40
2023-02-27T05:19:40.353Z,27.30
2023-02-27T05:23:04.817Z,26.90
2023-02-27T05:26:32.464Z,26.80
2023-02-27T05:29:56.185Z,26.80
2023-02-27T05:33:02.296Z,27.00
2023-02-27T05:36:27.070Z,26.80
2023-02-27T05:39:32.662Z,26.80
2023-02-27T05:42:40.886Z,26.70
2023-02-27T05:45:46.735Z,26.60
2023-02-27T05:49:16.061Z,26.60
2023-02-27T05:52:23.165Z,26.70
2023-02-27T05:55:30.472Z,26.90
2023-02-27T05:59:04.052Z,26.50
2023-02-27T06:02:07.749Z,26.30
2023-02-27T06:05:09.932Z,25.80
2023-02-27T06:08:12.325Z,25.70
2023-02-27T06:11:14.416Z,26.20
2023-02-27T06:14:16.625Z,26.30
2023-02-27T06:17:18.617Z,26.20
2023-02-27T06:20:20.890Z,26.30
2023-02-27T06:23:23.198Z,25.70
2023-02-27T06:26:25.897Z,25.60
2023-02-27T06:29:28.082Z,26.10
2023-02-27T06:32:30.364Z,26.30
2023-02-27T06:35:32.494Z,26.10
2023-02-27T06:38:34.913Z,26.30
2023-02-27T06:41:36.928Z,26.70
2023-02-27T06:44:39.220Z,26.90
2023-02-27T06:47:41.794Z,26.90
2023-02-27T06:50:44.184Z,26.80
2023-02-27T06:53:46.167Z,26.30
2023-02-27T06:56:48.591Z,26.80
2023-02-27T06:59:50.697Z,26.50
2023-02-27T07:02:52.987Z,26.90
2023-02-27T07:05:56.490Z,27.20
2023-02-27T07:09:02.166Z,27.30
2023-02-27T07:12:08.644Z,26.50
2023-02-27T07:15:11.434Z,26.00
2023-02-27T07:18:13.399Z,25.70
2023-02-27T07:21:15.705Z,25.20
2023-02-27T07:24:17.835Z,25.40
2023-02-27T07:27:21.229Z,25.10
2023-02-27T07:30:23.285Z,24.80
2023-02-27T07:33:26.114Z,24.10
2023-02-27T07:36:28.514Z,23.80
2023-02-27T07:39:30.940Z,24.00
2023-02-27T07:42:33.199Z,23.90
2023-02-27T07:45:35.485Z,24.30
2023-02-27T07:48:39.481Z,24.80
2023-02-27T07:51:41.740Z,25.30
2023-02-27T07:54:43.799Z,26.10
2023-02-27T07:57:48.813Z,25.20
2023-02-27T08:00:53.130Z,24.60
2023-02-27T08:03:56.501Z,25.20
2023-02-27T08:06:58.573Z,24.70
2023-02-27T08:10:00.952Z,25.10
2023-02-27T08:13:03.007Z,25.30
2023-02-27T08:16:05.790Z,25.30
2023-02-27T08:19:08.309Z,25.20
2023-02-27T08:22:11.948Z,25.50
2023-02-27T08:25:14.144Z,26.00
2023-02-27T08:28:18.244Z,26.20
2023-02-27T08:31:20.440Z,24.40
2023-02-27T08:34:22.732Z,24.00
2023-02-27T08:37:24.902Z,23.40
2023-02-27T08:40:27.185Z,24.10
2023-02-27T08:43:29.316Z,25.00
2023-02-27T08:46:31.635Z,25.20
2023-02-27T08:49:33.674Z,25.00
2023-02-27T08:52:35.985Z,25.40
2023-02-27T08:55:38.434Z,26.30
2023-02-27T08:58:43.441Z,26.10
2023-02-27T09:01:45.867Z,25.40
2023-02-27T09:04:48.139Z,25.20
2023-02-27T09:07:50.468Z,25.80
2023-02-27T09:10:57.135Z,25.30
2023-02-27T09:13:59.181Z,24.20
2023-02-27T09:17:01.506Z,23.90
2023-02-27T09:20:04.909Z,23.20
2023-02-27T09:23:07.731Z,23.90
2023-02-27T09:26:09.765Z,23.20
2023-02-27T09:29:12.032Z,24.00
2023-02-27T09:32:14.196Z,25.40
2023-02-27T09:35:17.127Z,25.30
2023-02-27T09:38:19.157Z,25.10
2023-02-27T09:41:51.959Z,25.00
2023-02-27T09:45:02.209Z,24.90
2023-02-27T09:48:24.060Z,25.90
2023-02-27T09:51:28.478Z,26.00
2023-02-27T09:54:34.041Z,25.10
2023-02-27T09:58:13.890Z,25.50
2023-02-27T10:01:39.391Z,25.10
2023-02-27T10:04:46.166Z,25.50
2023-02-27T10:08:00.956Z,25.10
2023-02-27T10:11:07.462Z,25.90
2023-02-27T10:14:25.951Z,25.10
2023-02-27T10:17:58.695Z,25.00
2023-02-27T10:21:07.380Z,24.90
2023-02-27T10:24:33.090Z,24.30
2023-02-27T10:27:35.641Z,23.40
2023-02-27T10:30:37.734Z,23.40
2023-02-27T10:33:42.970Z,24.30
2023-02-27T10:36:47.093Z,25.00
2023-02-27T10:40:00.720Z,25.60
2023-02-27T10:43:06.433Z,26.60
2023-02-27T10:46:40.025Z,25.60
2023-02-27T10:49:44.144Z,25.10
2023-02-27T10:52:54.249Z,26.50
2023-02-27T10:56:05.513Z,26.90
2023-02-27T10:59:17.501Z,27.20
2023-02-27T11:02:24.921Z,27.30
2023-02-27T11:05:49.698Z,27.30
2023-02-27T11:09:16.999Z,27.90
2023-02-27T11:12:31.484Z,27.70
2023-02-27T11:15:38.513Z,26.90
2023-02-27T11:18:45.690Z,26.80
2023-02-27T11:22:15.851Z,26.50
2023-02-27T11:25:23.186Z,27.00
2023-02-27T11:28:28.760Z,27.30
2023-02-27T11:31:32.992Z,26.50
2023-02-27T11:34:39.690Z,26.10
2023-02-27T11:37:41.960Z,26.70
2023-02-27T11:41:02.800Z,27.20
2023-02-27T11:49:29.527Z,27.30
2023-02-27T11:52:37.705Z,27.00
2023-02-27T11:55:41.371Z,27.10
2023-02-27T11:59:19.237Z,26.60
2023-02-27T12:02:39.123Z,27.10
2023-02-27T12:05:51.357Z,27.50
2023-02-27T12:09:00.695Z,26.10
2023-02-27T12:12:09.553Z,26.00
2023-02-27T12:15:26.238Z,25.70
2023-02-27T12:18:45.362Z,24.60
2023-02-27T12:21:53.893Z,26.00
2023-02-27T12:24:59.164Z,26.30
2023-02-27T12:28:01.113Z,27.10
2023-02-27T12:31:24.493Z,27.30
2023-02-27T12:34:30.338Z,27.20
2023-02-27T12:37:35.792Z,27.90
2023-02-27T12:40:54.204Z,27.00
2023-02-27T12:44:21.270Z,26.30
2023-02-27T12:47:42.201Z,26.80
2023-02-27T12:51:18.400Z,27.60
2023-02-27T12:54:44.613Z,26.90
2023-02-27T12:57:59.771Z,27.20
2023-02-27T13:01:18.424Z,27.20
2023-02-27T13:04:40.577Z,27.20
2023-02-27T13:07:57.672Z,26.20
2023-02-27T13:11:08.991Z,26.40
2023-02-27T13:14:26.748Z,25.80
2023-02-27T13:17:47.011Z,26.20
2023-02-27T13:21:11.209Z,25.20
2023-02-27T13:24:36.605Z,24.90
2023-02-27T13:27:49.083Z,25.10
2023-02-27T13:31:11.517Z,25.90
2023-02-27T13:34:42.332Z,25.80
2023-02-27T13:38:23.927Z,26.40
2023-02-27T13:41:36.043Z,26.00
2023-02-27T13:45:01.077Z,26.40
2023-02-27T13:48:06.621Z,26.10
2023-02-27T13:51:35.968Z,24.70
2023-02-27T13:54:44.330Z,23.80
2023-02-27T13:57:57.201Z,24.80
2023-02-27T14:01:08.006Z,25.40
2023-02-27T14:04:32.993Z,26.00
2023-02-27T14:07:55.274Z,25.60
2023-02-27T14:11:04.582Z,25.50
2023-02-27T14:14:09.975Z,23.30
2023-02-27T14:17:35.205Z,24.60
2023-02-27T14:20:40.827Z,25.40
2023-02-27T14:23:47.532Z,26.10
2023-02-27T14:26:50.663Z,26.10
2023-02-27T14:29:57.436Z,25.90
2023-02-27T14:33:21.670Z,25.70
2023-02-27T14:36:32.057Z,25.10
2023-02-27T14:39:36.282Z,24.70
2023-02-27T14:42:48.882Z,24.90
2023-02-27T14:45:53.038Z,24.10
2023-02-27T14:49:15.894Z,25.30
2023-02-27T14:52:27.898Z,26.20
2023-02-27T14:55:39.145Z,26.40
2023-02-27T14:58:55.522Z,26.30
2023-02-27T15:02:21.012Z,26.50
2023-02-27T15:05:34.945Z,27.10
2023-02-27T15:08:41.638Z,27.80
2023-02-27T15:11:51.282Z,27.20
2023-02-27T15:15:03.012Z,27.10
2023-02-27T15:18:14.373Z,27.40
2023-02-27T15:21:19.186Z,27.60
2023-02-27T15:24:22.364Z,27.20
2023-02-27T15:27:26.340Z,27.60
2023-02-27T15:30:28.946Z,27.70
2023-02-27T15:33:33.416Z,27.50
2023-02-27T15:36:36.808Z,27.50
2023-02-27T15:39:39.578Z,27.90
2023-02-27T15:42:42.199Z,27.40
2023-02-27T15:45:47.213Z,27.20
2023-02-27T15:48:52.332Z,27.30
2023-02-27T15:52:06.345Z,27.20
2023-02-27T15:55:21.826Z,26.50
2023-02-27T15:58:30.560Z,27.00
2023-02-27T16:01:37.175Z,26.50
2023-02-27T16:04:39.690Z,26.30
2023-02-27T16:07:43.195Z,25.70
2023-02-27T16:10:46.708Z,26.80
2023-02-27T16:13:49.317Z,27.80
2023-02-27T16:16:55.564Z,27.90
2023-02-27T16:20:01.781Z,27.60
2023-02-27T16:23:24.020Z,27.70
2023-02-27T16:26:37.014Z,27.90
2023-02-27T16:29:45.244Z,28.10
2023-02-27T16:32:47.385Z,28.20
2023-02-27T16:35:51.514Z,28.40
2023-02-27T16:38:54.106Z,28.40
2023-02-27T16:41:58.792Z,28.40
2023-02-27T16:45:00.829Z,28.70
2023-02-27T16:48:03.640Z,28.50
2023-02-27T16:51:10.521Z,28.00
2023-02-27T16:54:13.751Z,28.40
2023-02-27T16:57:17.621Z,28.50
2023-02-27T17:00:22.580Z,28.70
2023-02-27T17:03:25.790Z,28.90
2023-02-27T17:06:28.474Z,28.60
2023-02-27T17:09:30.904Z,28.60
2023-02-27T17:12:33.381Z,28.80
2023-02-27T17:15:35.422Z,28.70
2023-02-27T17:18:38.359Z,28.70
2023-02-27T17:21:40.945Z,28.90
2023-02-27T17:24:43.898Z,28.90
2023-02-27T17:27:46.721Z,28.80
2023-02-27T17:30:51.303Z,29.00
2023-02-27T17:33:54.630Z,29.10
2023-02-27T17:36:57.829Z,28.70
2023-02-27T17:40:04.137Z,28.80
2023-02-27T17:43:06.565Z,28.80
2023-02-27T17:46:14.819Z,28.80
2023-02-27T17:49:17.173Z,28.90
2023-02-27T17:52:19.542Z,29.00
2023-02-27T17:55:21.896Z,29.10
2023-02-27T17:58:24.247Z,29.10
2023-02-27T18:01:30.648Z,29.20
2023-02-27T18:04:33.184Z,29.20
2023-02-27T18:07:38.001Z,29.20
2023-02-27T18:10:42.652Z,29.20
2023-02-27T18:13:47.799Z,29.20
2023-02-27T18:16:50.198Z,29.10
2023-02-27T18:19:52.495Z,29.10
2023-02-27T18:22:56.215Z,29.10
2023-02-27T18:25:59.864Z,29.10
2023-02-27T18:29:06.094Z,29.10
2023-02-27T18:32:11.318Z,29.20
2023-02-27T18:35:13.401Z,29.30
2023-02-27T18:38:16.022Z,29.30
2023-02-27T18:41:20.586Z,29.20
2023-02-27T18:44:23.338Z,29.20
2023-02-27T18:47:25.500Z,29.20
2023-02-27T18:50:35.817Z,29.30
2023-02-27T18:53:39.195Z,29.20
2023-02-27T18:56:44.530Z,29.20
2023-02-27T18:59:47.509Z,29.20
2023-02-27T19:02:50.350Z,29.20
2023-02-27T19:05:54.419Z,29.20
2023-02-27T19:08:57.641Z,29.00
2023-02-27T19:12:00.599Z,29.00
2023-02-27T19:15:03.278Z,28.90
2023-02-27T19:18:06.904Z,28.90
2023-02-27T19:21:11.694Z,29.00
2023-02-27T19:24:16.707Z,28.90
2023-02-27T19:27:19.332Z,28.90
2023-02-27T19:30:21.605Z,29.00
2023-02-27T19:33:24.340Z,28.70
2023-02-27T19:36:39.827Z,28.80
2023-02-27T19:39:42.205Z,28.80
2023-02-27T19:42:44.664Z,28.80
2023-02-27T19:45:46.994Z,28.80
2023-02-27T19:48:50.079Z,28.80
2023-02-27T19:51:52.450Z,28.00
2023-02-27T19:54:54.553Z,27.50
2023-02-27T19:57:56.978Z,27.50
2023-02-27T20:01:00.664Z,27.60
2023-02-27T20:04:03.667Z,27.80
2023-02-27T20:07:06.417Z,28.00
2023-02-27T20:10:10.114Z,28.10
2023-02-27T20:13:12.136Z,27.90
2023-02-27T20:16:16.797Z,27.90
2023-02-27T20:19:19.897Z,27.70
2023-02-27T20:22:22.653Z,27.80
2023-02-27T20:25:25.058Z,27.70
2023-02-27T20:28:28.454Z,27.50
2023-02-27T20:31:32.487Z,27.40
2023-02-27T20:34:35.078Z,27.70
2023-02-27T20:37:37.089Z,28.10
2023-02-27T20:40:39.525Z,28.30
2023-02-27T20:43:45.140Z,28.40
2023-02-27T20:46:49.316Z,28.60
2023-02-27T20:49:51.534Z,28.70
2023-02-27T20:52:55.103Z,28.70
2023-02-27T20:56:16.132Z,27.70
2023-02-27T20:59:20.875Z,27.40
2023-02-27T21:02:22.889Z,27.40
2023-02-27T21:05:25.318Z,27.80
2023-02-27T21:08:27.499Z,27.50
2023-02-27T21:11:35.212Z,27.40
2023-02-27T21:14:39.955Z,27.70
2023-02-27T21:17:44.131Z,27.70
2023-02-27T21:20:54.633Z,27.60
2023-02-27T21:24:16.612Z,27.70
2023-02-27T21:27:23.768Z,27.50
2023-02-27T21:30:28.276Z,27.40
2023-02-27T21:33:30.724Z,27.50
2023-02-27T21:36:36.478Z,26.70
2023-02-27T21:39:39.951Z,26.80
2023-02-27T21:42:43.250Z,26.70
2023-02-27T21:45:50.053Z,27.10
2023-02-27T21:48:52.121Z,27.40
2023-02-27T21:51:55.070Z,27.40
2023-02-27T21:54:57.616Z,27.10
2023-02-27T21:57:59.970Z,27.30
2023-02-27T22:01:02.999Z,27.40
2023-02-27T22:04:07.176Z,27.40
2023-02-27T22:07:11.384Z,27.30
2023-02-27T22:10:13.877Z,27.50
2023-02-27T22:13:16.253Z,27.20
2023-02-27T22:16:19.409Z,27.50
2023-02-27T22:19:22.609Z,27.70
2023-02-27T22:22:24.911Z,27.50
2023-02-27T22:25:26.996Z,26.70
2023-02-27T22:28:30.967Z,26.50
2023-02-27T22:31:35.804Z,27.20
2023-02-27T22:34:38.131Z,27.40
2023-02-27T22:37:40.144Z,27.70
2023-02-27T22:40:42.412Z,27.80
2023-02-27T22:43:45.444Z,27.60
2023-02-27T22:46:49.407Z,27.50
2023-02-27T22:49:52.167Z,27.50
2023-02-27T22:52:54.414Z,27.50
2023-02-27T22:55:57.051Z,27.70
2023-02-27T22:58:59.605Z,27.70
2023-02-27T23:02:01.941Z,27.60
2023-02-27T23:05:04.442Z,27.60
2023-02-27T23:08:06.636Z,27.80
2023-02-27T23:11:10.008Z,27.80
2023-02-27T23:14:12.812Z,27.60
2023-02-27T23:17:15.078Z,27.50
2023-02-27T23:20:17.348Z,27.60
2023-02-27T23:23:19.634Z,27.60
2023-02-27T23:26:21.788Z,27.60
2023-02-27T23:29:24.014Z,27.30
2023-02-27T23:32:26.096Z,27.50
2023-02-27T23:35:29.157Z,27.70
2023-02-27T23:38:31.202Z,27.60
2023-02-27T23:41:34.206Z,27.80
2023-02-27T23:44:36.203Z,27.70
2023-02-27T23:47:52.030Z,27.60
2023-02-27T23:50:54.029Z,27.60
2023-02-27T23:53:56.414Z,27.10
2023-02-27T23:56:58.558Z,27.20
